createdAt,value
2019-02-22T00:03:47.082Z,7.70
2019-02-22T00:08:52.080Z,7.70
2019-02-22T00:13:57.097Z,7.70
2019-02-22T00:19:02.108Z,7.70
2019-02-22T00:24:07.127Z,7.70
2019-02-22T00:29:12.176Z,7.60
2019-02-22T00:34:17.214Z,7.60
2019-02-22T00:39:22.221Z,7.60
2019-02-22T00:44:27.234Z,7.60
2019-02-22T00:49:32.237Z,7.60
2019-02-22T00:54:37.225Z,7.60
2019-02-22T00:59:42.392Z,7.60
2019-02-22T01:04:47.443Z,7.60
2019-02-22T01:09:52.541Z,7.60
2019-02-22T01:14:57.574Z,7.50
2019-02-22T01:20:02.596Z,7.50
2019-02-22T01:25:07.777Z,7.50
2019-02-22T01:30:12.821Z,7.50
2019-02-22T01:35:17.825Z,7.50
2019-02-22T01:40:22.838Z,7.40
2019-02-22T01:45:27.898Z,7.40
2019-02-22T01:50:33.312Z,7.40
2019-02-22T01:55:38.316Z,7.30
2019-02-22T02:00:43.373Z,7.30
2019-02-22T02:05:48.388Z,7.30
2019-02-22T02:10:54.468Z,7.30
2019-02-22T02:15:59.821Z,7.40
2019-02-22T02:21:04.824Z,7.30
2019-02-22T02:26:09.873Z,7.40
2019-02-22T02:31:14.907Z,7.40
2019-02-22T02:36:19.925Z,7.40
2019-02-22T02:41:24.935Z,7.40
2019-02-22T02:46:29.946Z,7.40
2019-02-22T02:51:34.936Z,7.40
2019-02-22T02:56:39.966Z,7.40
2019-02-22T03:01:44.973Z,7.30
2019-02-22T03:07:01.401Z,7.30
2019-02-22T03:12:06.398Z,7.40
2019-02-22T03:17:11.408Z,7.30
2019-02-22T03:22:16.400Z,7.40
2019-02-22T03:27:21.405Z,7.40
2019-02-22T03:32:26.440Z,7.40
2019-02-22T03:37:31.433Z,7.30
2019-02-22T03:42:36.427Z,7.40
2019-02-22T03:47:41.451Z,7.30
2019-02-22T03:52:50.161Z,7.30
2019-02-22T03:57:55.176Z,7.30
2019-02-22T04:03:00.681Z,7.30
2019-02-22T04:08:07.212Z,7.30
2019-02-22T04:13:12.279Z,7.20
2019-02-22T04:18:17.284Z,7.30
2019-02-22T04:23:22.310Z,7.30
2019-02-22T04:28:27.481Z,7.30
2019-02-22T04:33:32.552Z,7.20
2019-02-22T04:38:37.545Z,7.20
2019-02-22T04:43:42.557Z,7.20
2019-02-22T04:48:47.555Z,7.20
2019-02-22T04:53:52.667Z,7.20
2019-02-22T04:58:57.677Z,7.10
2019-02-22T05:04:02.672Z,7.10
2019-02-22T05:09:07.915Z,7.20
2019-02-22T05:14:12.966Z,7.10
2019-02-22T05:19:18.014Z,7.10
2019-02-22T05:24:23.016Z,7.20
2019-02-22T05:29:28.048Z,7.20
2019-02-22T05:34:33.061Z,7.20
2019-02-22T05:39:38.159Z,7.20
2019-02-22T05:44:43.163Z,7.20
2019-02-22T05:49:48.269Z,7.20
2019-02-22T05:54:53.292Z,7.10
2019-02-22T05:59:58.375Z,7.20
2019-02-22T06:05:03.381Z,7.20
2019-02-22T06:10:08.911Z,7.20
2019-02-22T06:15:13.929Z,7.20
2019-02-22T06:20:18.925Z,7.20
2019-02-22T06:25:23.927Z,7.20
2019-02-22T06:30:28.972Z,7.20
2019-02-22T06:35:34.007Z,7.20
2019-02-22T06:40:39.025Z,7.30
2019-02-22T06:45:44.037Z,7.30
2019-02-22T06:50:49.075Z,7.40
2019-02-22T06:55:54.094Z,7.40
2019-02-22T07:00:59.104Z,7.40
2019-02-22T07:06:05.717Z,7.50
2019-02-22T07:11:24.618Z,7.50
2019-02-22T07:16:29.631Z,7.40
2019-02-22T07:21:49.137Z,7.40
2019-02-22T07:26:41.515Z,7.40
2019-02-22T07:31:46.569Z,7.40
2019-02-22T07:36:51.569Z,7.40
2019-02-22T07:41:56.565Z,7.30
2019-02-22T07:47:01.562Z,7.40
2019-02-22T07:52:06.576Z,7.30
2019-02-22T07:57:11.600Z,7.40
2019-02-22T08:02:16.641Z,7.40
2019-02-22T08:07:21.640Z,7.40
2019-02-22T08:12:26.722Z,7.50
2019-02-22T08:17:31.717Z,7.60
2019-02-22T08:22:36.786Z,7.80
2019-02-22T08:27:52.748Z,8.10
2019-02-22T08:32:48.789Z,8.30
2019-02-22T08:37:53.809Z,8.30
2019-02-22T08:42:58.820Z,8.20
2019-02-22T08:48:04.273Z,8.20
2019-02-22T08:53:09.350Z,8.20
2019-02-22T08:58:15.477Z,8.10
2019-02-22T09:03:20.556Z,8.20
2019-02-22T09:08:25.857Z,8.20
2019-02-22T09:13:30.810Z,8.20
2019-02-22T09:18:37.661Z,8.30
2019-02-22T09:23:42.677Z,8.20
2019-02-22T09:28:47.700Z,8.20
2019-02-22T09:33:52.712Z,8.20
2019-02-22T09:38:57.713Z,8.20
2019-02-22T09:44:02.735Z,8.20
2019-02-22T09:49:07.809Z,8.20
2019-02-22T09:54:12.796Z,8.30
2019-02-22T09:59:17.819Z,8.30
2019-02-22T10:04:22.824Z,8.30
2019-02-22T10:09:27.833Z,8.40
2019-02-22T10:14:32.888Z,8.40
2019-02-22T10:19:37.921Z,8.60
2019-02-22T10:24:42.928Z,8.70
2019-02-22T10:29:50.103Z,8.60
2019-02-22T10:34:55.118Z,8.70
2019-02-22T10:40:00.368Z,8.80
2019-02-22T10:45:06.490Z,8.80
2019-02-22T10:50:11.538Z,8.90
2019-02-22T10:55:16.546Z,9.00
2019-02-22T11:00:22.193Z,9.10
2019-02-22T11:05:27.403Z,9.20
2019-02-22T11:10:32.412Z,9.10
2019-02-22T11:15:37.420Z,9.00
2019-02-22T11:20:42.444Z,8.90
2019-02-22T11:25:49.353Z,8.90
2019-02-22T11:30:54.419Z,8.90
2019-02-22T11:35:59.506Z,8.80
2019-02-22T11:41:06.016Z,8.90
2019-02-22T11:46:11.027Z,8.80
2019-02-22T11:51:16.046Z,8.70
2019-02-22T11:56:21.050Z,8.60
2019-02-22T12:01:26.056Z,8.80
2019-02-22T12:06:31.081Z,9.00
2019-02-22T12:11:36.079Z,9.20
2019-02-22T12:16:41.088Z,9.40
2019-02-22T12:21:46.140Z,9.50
2019-02-22T12:26:51.105Z,9.40
2019-02-22T12:31:56.150Z,9.30
2019-02-22T12:37:01.213Z,9.70
2019-02-22T12:42:06.229Z,10.40
2019-02-22T12:47:11.466Z,10.70
2019-02-22T12:52:16.445Z,10.70
2019-02-22T12:57:21.492Z,10.90
2019-02-22T13:02:26.821Z,11.00
2019-02-22T13:07:31.777Z,11.00
2019-02-22T13:12:36.945Z,10.70
2019-02-22T13:17:41.965Z,10.40
2019-02-22T13:22:46.986Z,10.20
2019-02-22T13:27:51.993Z,10.10
2019-02-22T13:32:56.985Z,10.00
2019-02-22T13:38:02.317Z,9.90
2019-02-22T13:43:07.419Z,9.80
2019-02-22T13:48:12.388Z,9.70
2019-02-22T13:53:17.371Z,9.70
2019-02-22T13:58:22.375Z,9.70
2019-02-22T14:03:27.352Z,9.60
2019-02-22T14:08:32.382Z,9.60
2019-02-22T14:13:37.355Z,9.50
2019-02-22T14:18:47.908Z,9.40
2019-02-22T14:23:53.060Z,9.30
2019-02-22T14:28:59.988Z,9.20
2019-02-22T14:34:04.971Z,9.00
2019-02-22T14:39:10.374Z,8.90
2019-02-22T14:44:15.355Z,8.90
2019-02-22T14:49:20.802Z,8.80
2019-02-22T14:54:25.829Z,8.80
2019-02-22T14:59:31.095Z,8.80
2019-02-22T15:04:36.343Z,8.70
2019-02-22T15:09:41.813Z,8.80
2019-02-22T15:14:47.052Z,8.80
2019-02-22T15:19:52.584Z,8.80
2019-02-22T15:24:57.701Z,8.80
2019-02-22T15:30:02.687Z,8.90
2019-02-22T15:35:10.243Z,8.90
2019-02-22T15:40:15.295Z,8.90
2019-02-22T15:45:20.580Z,8.90
2019-02-22T15:50:26.349Z,8.90
2019-02-22T15:55:31.353Z,8.90
2019-02-22T16:00:36.370Z,8.80
2019-02-22T16:05:43.133Z,8.70
2019-02-22T16:10:48.114Z,8.60
2019-02-22T16:15:53.088Z,8.60
2019-02-22T16:20:58.065Z,8.50
2019-02-22T16:26:03.096Z,8.40
2019-02-22T16:31:08.076Z,8.40
2019-02-22T16:36:13.060Z,8.30
2019-02-22T16:41:18.047Z,8.30
2019-02-22T16:46:34.129Z,8.20
2019-02-22T16:51:29.695Z,8.10
2019-02-22T16:56:34.671Z,8.10
2019-02-22T17:01:39.695Z,8.10
2019-02-22T17:06:44.663Z,8.00
2019-02-22T17:11:49.647Z,7.90
2019-02-22T17:16:54.631Z,7.80
2019-02-22T17:21:59.631Z,7.70
2019-02-22T17:27:04.621Z,7.60
2019-02-22T17:32:09.593Z,7.60
2019-02-22T17:37:14.559Z,7.50
2019-02-22T17:42:19.543Z,7.50
2019-02-22T17:47:24.524Z,7.40
2019-02-22T17:52:31.793Z,7.40
2019-02-22T17:57:36.163Z,7.40
2019-02-22T18:02:41.140Z,7.30
2019-02-22T18:07:46.116Z,7.30
2019-02-22T18:12:51.103Z,7.20
2019-02-22T18:17:56.080Z,7.10
2019-02-22T18:23:01.106Z,7.10
2019-02-22T18:28:06.084Z,7.00
2019-02-22T18:33:11.112Z,7.00
2019-02-22T18:38:16.100Z,6.90
2019-02-22T18:43:21.065Z,6.90
2019-02-22T18:48:26.046Z,6.90
2019-02-22T18:53:31.024Z,6.90
2019-02-22T18:58:36.282Z,6.90
2019-02-22T19:03:41.276Z,6.90
2019-02-22T19:08:46.546Z,6.80
2019-02-22T19:13:51.460Z,6.80
2019-02-22T19:18:56.450Z,6.80
2019-02-22T19:24:01.431Z,6.80
2019-02-22T19:29:06.412Z,6.80
2019-02-22T19:34:11.439Z,6.80
2019-02-22T19:39:16.406Z,6.80
2019-02-22T19:44:21.390Z,6.80
2019-02-22T19:49:26.513Z,6.80
2019-02-22T19:54:31.499Z,6.80
2019-02-22T19:59:36.661Z,6.70
2019-02-22T20:04:41.651Z,6.70
2019-02-22T20:09:46.767Z,6.70
2019-02-22T20:14:51.740Z,6.70
2019-02-22T20:19:56.832Z,6.70
2019-02-22T20:25:01.843Z,6.70
2019-02-22T20:30:07.967Z,6.70
2019-02-22T20:35:15.285Z,6.70
2019-02-22T20:40:20.265Z,6.60
2019-02-22T20:45:25.232Z,6.60
2019-02-22T20:50:30.190Z,6.60
2019-02-22T20:55:35.170Z,6.60
2019-02-22T21:00:40.143Z,6.60
2019-02-22T21:05:45.113Z,6.60
2019-02-22T21:10:50.156Z,6.60
2019-02-22T21:15:55.130Z,6.40
2019-02-22T21:21:00.100Z,6.00
2019-02-22T21:26:05.098Z,5.80
2019-02-22T21:31:10.346Z,5.60
2019-02-22T21:36:15.359Z,5.40
2019-02-22T21:41:20.348Z,5.30
2019-02-22T21:46:28.879Z,5.20
2019-02-22T21:51:34.060Z,5.20
2019-02-22T22:00:24.203Z,5.10
2019-02-22T22:05:30.792Z,4.80
2019-02-22T22:10:36.281Z,4.60
2019-02-22T22:15:41.315Z,4.40
2019-02-22T22:20:46.340Z,4.30
2019-02-22T22:25:52.087Z,4.10
2019-02-22T22:30:58.614Z,4.00
2019-02-22T22:36:03.627Z,3.80
2019-02-22T22:41:09.894Z,3.70
2019-02-22T22:46:14.874Z,3.50
2019-02-22T22:51:19.970Z,3.50
2019-02-22T22:56:24.948Z,3.30
2019-02-22T23:01:31.691Z,3.20
2019-02-22T23:06:36.696Z,3.10
2019-02-22T23:11:42.148Z,3.00
2019-02-22T23:16:50.331Z,2.90
2019-02-22T23:21:55.435Z,2.80
2019-02-22T23:27:01.635Z,2.70
2019-02-22T23:32:06.639Z,2.60
2019-02-22T23:37:11.637Z,2.50
2019-02-22T23:42:16.612Z,2.50
2019-02-22T23:47:21.594Z,2.30
2019-02-22T23:52:26.582Z,2.20
2019-02-22T23:57:31.638Z,2.20
